Time;durP1;ratioP1;P1;durP2;ratioP2;P2;SDS_P1;SDS_P2;PMS_P1;PMS_P2;Temp;Humidity;BMP_temperature;BMP_pressure;BME280_temperature;BME280_humidity;BME280_pressure;Samples;Min_cycle;Max_cycle;Signal;HPM_P1;HPM_P2
2023/03/28 04:38:40;;;;;;;;;;;;;;;7.41;100.00;98244.70;110948;1245;22999;-46
2023/03/28 04:41:19;;;;;;;;;;;;;;;7.43;100.00;98238.27;110373;1245;22482;-53
2023/03/28 04:43:55;;;;;;;;;;;;;;;7.46;100.00;98234.36;110840;1245;24819;-53
2023/03/28 04:46:21;;;;;;;;;;;;;;;7.50;100.00;98227.92;111629;1245;22460;-51
2023/03/28 04:48:49;;;;;;;;;;;;;;;7.52;100.00;98223.52;111867;1245;23195;-46
2023/03/28 04:51:27;;;;;;;;;;;;;;;7.55;100.00;98225.20;111847;1245;23248;-46
2023/03/28 04:53:54;;;;;;;;;;;;;;;7.58;100.00;98220.95;113173;1245;22889;-53
2023/03/28 04:56:39;;;;;;;;;;;;;;;7.60;100.00;98213.66;113400;1245;22353;-45
2023/03/28 04:59:07;;;;;;;;;;;;;;;7.62;100.00;98211.17;113237;1245;22413;-53
2023/03/28 05:01:34;;;;;;;;;;;;;;;7.62;100.00;98207.86;113286;1245;23080;-45
2023/03/28 05:04:20;;;;;;;;;;;;;;;7.64;100.00;98202.61;113088;1246;22610;-48
2023/03/28 05:06:47;;;;;;;;;;;;;;;7.68;100.00;98206.70;112718;1245;22450;-46
2023/03/28 05:09:15;;;;;;;;;;;;;;;7.71;100.00;98204.89;113142;1245;22448;-54
2023/03/28 05:11:42;;;;;;;;;;;;;;;7.75;100.00;98202.39;112584;1245;22441;-46
2023/03/28 05:14:09;;;;;;;;;;;;;;;7.77;100.00;98197.65;113104;1246;22404;-54
2023/03/28 05:16:41;;;;;;;;;;;;;;;7.78;100.00;98188.10;112854;1246;22362;-53
2023/03/28 05:19:30;;;;;;;;;;;;;;;7.79;100.00;98183.02;113107;1245;22383;-54
2023/03/28 05:22:06;;;;;;;;;;;;;;;7.83;100.00;98176.88;113081;1245;22328;-46
2023/03/28 05:24:33;;;;;;;;;;;;;;;7.86;100.00;98173.50;112998;1244;22459;-52
2023/03/28 05:27:08;;;;;;;;;;;;;;;7.91;100.00;98173.55;112968;1246;22352;-45
2023/03/28 05:29:36;;;;;;;;;;;;;;;7.98;100.00;98164.02;113048;1245;22401;-52
2023/03/28 05:32:03;;;;;;;;;;;;;;;8.05;100.00;98164.91;112956;1245;22384;-54
2023/03/28 05:34:33;;;;;;;;;;;;;;;8.10;100.00;98154.70;112859;1245;22478;-45
2023/03/28 05:37:01;;;;;;;;;;;;;;;8.14;100.00;98156.01;112530;1245;22435;-53
2023/03/28 05:39:32;;;;;;;;;;;;;;;8.17;100.00;98148.98;112390;1245;22471;-53
2023/03/28 05:42:02;;;;;;;;;;;;;;;8.20;100.00;98145.28;111841;1245;22491;-54
2023/03/28 05:44:34;;;;;;;;;;;;;;;8.21;100.00;98137.41;112445;1245;23218;-46
2023/03/28 05:47:25;;;;;;;;;;;;;;;8.25;100.00;98132.47;112724;1246;22389;-46
2023/03/28 05:49:52;;;;;;;;;;;;;;;8.27;100.00;98133.10;112996;1246;22454;-46
2023/03/28 05:52:23;;;;;;;;;;;;;;;8.29;100.00;98137.23;112768;1245;22394;-53
2023/03/28 05:54:51;;;;;;;;;;;;;;;8.30;100.00;98131.48;112731;1246;22397;-45
2023/03/28 05:57:22;;;;;;;;;;;;;;;8.27;100.00;98135.69;112464;1245;22456;-47
2023/03/28 05:59:52;;;;;;;;;;;;;;;8.24;100.00;98132.50;112491;1245;24034;-44
2023/03/28 06:02:24;;;;;;;;;;;;;;;8.21;100.00;98125.77;112604;1245;22449;-56
2023/03/28 06:04:56;;;;;;;;;;;;;;;8.18;100.00;98120.12;112242;1246;22924;-54
2023/03/28 06:07:23;;;;;;;;;;;;;;;8.16;100.00;98121.23;112987;1245;22475;-52
2023/03/28 06:10:07;;;;;;;;;;;;;;;8.14;100.00;98128.23;112277;1245;22486;-45
2023/03/28 06:12:34;;;;;;;;;;;;;;;8.11;100.00;98133.69;112019;1245;22486;-52
2023/03/28 06:15:01;;;;;;;;;;;;;;;8.06;100.00;98133.27;112838;1246;23202;-51
2023/03/28 06:17:38;;;;;;;;;;;;;;;7.99;100.00;98116.95;112831;1246;22438;-53
2023/03/28 06:20:08;;;;;;;;;;;;;;;7.92;100.00;98109.66;112940;1245;193198;-44
2023/03/28 06:22:35;;;;;;;;;;;;;;;7.88;100.00;98108.02;112952;1245;22892;-46
2023/03/28 06:25:05;;;;;;;;;;;;;;;7.84;100.00;98093.89;111731;1245;22476;-45
2023/03/28 06:27:32;;;;;;;;;;;;;;;7.81;100.00;98091.34;112656;1245;23814;-46
2023/03/28 06:30:00;;;;;;;;;;;;;;;7.78;100.00;98089.00;112849;1245;23259;-46
2023/03/28 06:32:31;;;;;;;;;;;;;;;7.78;100.00;98092.66;112714;1245;23396;-45
2023/03/28 06:34:59;;;;;;;;;;;;;;;7.78;100.00;98089.17;112936;1245;22373;-47
2023/03/28 06:37:26;;;;;;;;;;;;;;;7.79;100.00;98085.67;112819;1245;23261;-53
2023/03/28 06:40:00;;;;;;;;;;;;;;;7.82;100.00;98079.36;113031;1246;22954;-45
2023/03/28 06:42:27;;;;;;;;;;;;;;;7.84;100.00;98081.05;113110;1246;22390;-46
2023/03/28 06:44:59;;;;;;;;;;;;;;;7.86;100.00;98071.62;111923;1246;22995;-54
2023/03/28 06:47:27;;;;;;;;;;;;;;;7.87;100.00;98066.55;112858;1244;22644;-46
2023/03/28 06:49:53;;;;;;;;;;;;;;;7.89;100.00;98060.27;113028;1245;23409;-53
2023/03/28 06:52:56;;;;;;;;;;;;;;;7.87;100.00;98057.35;112053;1246;22504;-53
2023/03/28 06:55:24;;;;;;;;;;;;;;;7.85;100.00;98048.39;112752;1246;23279;-46
2023/03/28 06:57:53;;;;;;;;;;;;;;;7.86;100.00;98049.41;112669;1245;22459;-45
2023/03/28 07:00:27;;;;;;;;;;;;;;;7.85;100.00;98053.06;112896;1246;22375;-54
2023/03/28 07:03:30;;;;;;;;;;;;;;;7.87;100.00;98059.78;112744;1246;22401;-46
2023/03/28 07:06:02;;;;;;;;;;;;;;;7.89;100.00;98061.98;112913;1246;23659;-47
2023/03/28 07:08:29;;;;;;;;;;;;;;;7.90;100.00;98063.88;112920;1245;22412;-45
2023/03/28 07:10:57;;;;;;;;;;;;;;;7.91;100.00;98067.48;112292;1245;22430;-47
2023/03/28 07:13:25;;;;;;;;;;;;;;;7.91;100.00;98060.21;112457;1246;23583;-53
2023/03/28 07:15:59;;;;;;;;;;;;;;;7.89;100.00;98069.63;112823;1246;23354;-53
2023/03/28 07:18:26;;;;;;;;;;;;;;;7.88;100.00;98067.57;112336;1246;22563;-45
2023/03/28 07:20:56;;;;;;;;;;;;;;;7.86;100.00;98056.15;111290;1243;25292;-53
2023/03/28 07:23:31;;;;;;;;;;;;;;;7.85;100.00;98059.30;112832;1245;22430;-54
2023/03/28 07:26:00;;;;;;;;;;;;;;;7.85;100.00;98055.32;112932;1246;22387;-54
2023/03/28 07:28:28;;;;;;;;;;;;;;;7.85;100.00;98047.18;112893;1245;22397;-51
2023/03/28 07:30:55;;;;;;;;;;;;;;;7.83;100.00;98037.15;113015;1246;22393;-53
2023/03/28 07:33:22;;;;;;;;;;;;;;;7.82;100.00;98037.69;113101;1246;23189;-53
2023/03/28 07:36:06;;;;;;;;;;;;;;;7.82;100.00;98035.77;112730;1245;22490;-45
2023/03/28 07:38:35;;;;;;;;;;;;;;;7.82;100.00;98022.42;112240;1245;22461;-54
2023/03/28 07:41:03;;;;;;;;;;;;;;;7.82;100.00;98014.79;112992;1245;22448;-54
2023/03/28 07:43:30;;;;;;;;;;;;;;;7.82;100.00;98010.78;112909;1245;22407;-46
2023/03/28 07:46:01;;;;;;;;;;;;;;;7.83;100.00;98003.66;112855;1245;22346;-45
2023/03/28 07:48:28;;;;;;;;;;;;;;;7.81;100.00;97996.56;112871;1245;22414;-46
2023/03/28 07:50:55;;;;;;;;;;;;;;;7.80;100.00;97994.36;112828;1246;23163;-45
2023/03/28 07:53:22;;;;;;;;;;;;;;;7.79;100.00;97979.48;112998;1245;22451;-47
2023/03/28 07:55:49;;;;;;;;;;;;;;;7.78;100.00;97980.89;112909;1245;22434;-45
2023/03/28 07:58:30;;;;;;;;;;;;;;;7.78;100.00;97981.23;112907;1245;22435;-46
2023/03/28 08:01:05;;;;;;;;;;;;;;;7.79;100.00;97968.71;112912;1246;22435;-46
2023/03/28 08:03:44;;;;;;;;;;;;;;;7.82;100.00;97958.22;112317;1244;22504;-53
2023/03/28 08:06:14;;;;;;;;;;;;;;;7.85;100.00;97959.69;112943;1245;22411;-45
2023/03/28 08:09:01;;;;;;;;;;;;;;;7.89;100.00;97959.94;112902;1245;22809;-46
2023/03/28 08:11:38;;;;;;;;;;;;;;;7.93;100.00;97954.42;112055;1246;23244;-52
2023/03/28 08:14:09;;;;;;;;;;;;;;;7.96;100.00;97959.40;112156;1246;22570;-45
2023/03/28 08:16:41;;;;;;;;;;;;;;;7.99;100.00;97957.58;112875;1245;23154;-54
2023/03/28 08:19:08;;;;;;;;;;;;;;;8.02;100.00;97966.37;113166;1245;22421;-54
2023/03/28 08:22:04;;;;;;;;;;;;;;;8.05;100.00;97965.41;112474;1245;22459;-45
2023/03/28 08:24:36;;;;;;;;;;;;;;;8.06;100.00;97956.71;113065;1245;22428;-45
2023/03/28 08:27:11;;;;;;;;;;;;;;;8.06;100.00;97960.35;113142;1245;23152;-54
2023/03/28 08:29:39;;;;;;;;;;;;;;;8.07;100.00;97949.55;113078;1245;22481;-51
2023/03/28 08:32:06;;;;;;;;;;;;;;;8.10;100.00;97953.12;113029;1246;22438;-45
2023/03/28 08:34:36;;;;;;;;;;;;;;;8.12;100.00;97948.73;112761;1245;22472;-52
2023/03/28 08:37:09;;;;;;;;;;;;;;;8.13;100.00;97946.45;112538;1246;22451;-53
2023/03/28 08:39:40;;;;;;;;;;;;;;;8.16;100.00;97946.38;112325;1245;22523;-47
2023/03/28 08:42:17;;;;;;;;;;;;;;;8.18;100.00;97941.96;112819;1246;23162;-43
2023/03/28 08:45:01;;;;;;;;;;;;;;;8.19;100.00;97936.04;112676;1245;23015;-53
2023/03/28 08:47:31;;;;;;;;;;;;;;;8.20;100.00;97938.77;112844;1245;22428;-45
2023/03/28 08:50:00;;;;;;;;;;;;;;;8.20;100.00;97937.91;112640;1245;23432;-45
2023/03/28 08:52:30;;;;;;;;;;;;;;;8.21;100.00;97936.69;112811;1246;22420;-45
2023/03/28 08:54:58;;;;;;;;;;;;;;;8.21;100.00;97930.95;112823;1245;22564;-44
2023/03/28 08:57:26;;;;;;;;;;;;;;;8.21;100.00;97930.41;112803;1245;22973;-45
2023/03/28 08:59:57;;;;;;;;;;;;;;;8.23;100.00;97922.19;112722;1245;22521;-45
2023/03/28 09:02:25;;;;;;;;;;;;;;;8.24;100.00;97920.78;112736;1246;22435;-43
2023/03/28 09:04:53;;;;;;;;;;;;;;;8.26;100.00;97913.60;112716;1245;22927;-46
2023/03/28 09:07:31;;;;;;;;;;;;;;;8.27;100.00;97908.70;112819;1246;22353;-44
2023/03/28 09:10:17;;;;;;;;;;;;;;;8.30;100.00;97902.21;112766;1245;22341;-44
2023/03/28 09:13:10;;;;;;;;;;;;;;;8.33;100.00;97905.08;112670;1246;22516;-45
2023/03/28 09:15:37;;;;;;;;;;;;;;;8.37;100.00;97903.06;113148;1245;23162;-46
2023/03/28 09:18:10;;;;;;;;;;;;;;;8.42;100.00;97901.04;113059;1246;22469;-46
2023/03/28 09:20:53;;;;;;;;;;;;;;;8.46;100.00;97905.76;112872;1245;22557;-46
2023/03/28 09:23:44;;;;;;;;;;;;;;;8.48;100.00;97887.98;112728;1245;23094;-56
2023/03/28 09:26:33;;;;;;;;;;;;;;;8.50;100.00;97897.11;112865;1245;22422;-46
2023/03/28 09:29:16;;;;;;;;;;;;;;;8.52;100.00;97890.83;112869;1246;22967;-56
2023/03/28 09:31:47;;;;;;;;;;;;;;;8.56;100.00;97888.79;112790;1245;22412;-47
2023/03/28 09:34:29;;;;;;;;;;;;;;;8.61;100.00;97888.83;112853;1246;22610;-46
2023/03/28 09:37:26;;;;;;;;;;;;;;;8.66;100.00;97881.20;112798;1245;22379;-46
2023/03/28 09:39:54;;;;;;;;;;;;;;;8.71;100.00;97870.10;112042;1254;22592;-46
2023/03/28 09:42:30;;;;;;;;;;;;;;;8.75;100.00;97870.66;111967;1255;22415;-47
2023/03/28 09:45:35;;;;;;;;;;;;;;;8.79;100.00;97863.59;111814;1254;22832;-57
2023/03/28 09:48:24;;;;;;;;;;;;;;;8.80;100.00;97858.49;112053;1255;22671;-49
2023/03/28 09:50:52;;;;;;;;;;;;;;;8.81;100.00;97862.13;112035;1254;22885;-56
2023/03/28 09:53:25;;;;;;;;;;;;;;;8.83;100.00;97854.27;111944;1254;23081;-57
2023/03/28 09:55:53;;;;;;;;;;;;;;;8.82;100.00;97860.39;112039;1254;23370;-57
2023/03/28 09:58:47;;;;;;;;;;;;;;;8.80;100.00;97863.02;112263;1254;23098;-57
2023/03/28 10:01:24;;;;;;;;;;;;;;;8.76;100.00;97860.73;112233;1254;22370;-47
2023/03/28 10:04:15;;;;;;;;;;;;;;;8.74;100.00;97860.27;111965;1255;22428;-46
2023/03/28 10:07:10;;;;;;;;;;;;;;;8.73;100.00;97862.05;112153;1254;23497;-57
2023/03/28 10:09:52;;;;;;;;;;;;;;;8.71;100.00;97860.02;112170;1254;23215;-58
2023/03/28 10:12:26;;;;;;;;;;;;;;;8.69;100.00;97862.67;112199;1254;22403;-57
2023/03/28 10:14:56;;;;;;;;;;;;;;;8.65;100.00;97858.10;112154;1254;22390;-57
2023/03/28 10:17:48;;;;;;;;;;;;;;;8.61;100.00;97856.86;112893;1246;23175;-56
2023/03/28 10:20:20;;;;;;;;;;;;;;;8.58;100.00;97856.61;112924;1246;22964;-57
2023/03/28 10:22:53;;;;;;;;;;;;;;;8.56;100.00;97849.17;112940;1246;22448;-47
2023/03/28 10:25:21;;;;;;;;;;;;;;;8.55;100.00;97841.41;110731;1246;25231;-46
2023/03/28 10:27:49;;;;;;;;;;;;;;;8.53;100.00;97844.60;112534;1246;23096;-46
2023/03/28 10:30:16;;;;;;;;;;;;;;;8.52;100.00;97836.09;112684;1246;22589;-56
2023/03/28 10:32:51;;;;;;;;;;;;;;;8.52;100.00;97828.80;112967;1246;23567;-56
2023/03/28 10:35:26;;;;;;;;;;;;;;;8.56;100.00;97825.04;113054;1246;22352;-47
2023/03/28 10:38:03;;;;;;;;;;;;;;;8.61;100.00;97824.34;113223;1246;22416;-47
2023/03/28 10:40:52;;;;;;;;;;;;;;;8.65;100.00;97826.14;113280;1246;22352;-57
2023/03/28 10:43:35;;;;;;;;;;;;;;;8.68;100.00;97819.41;113217;1246;23188;-46
2023/03/28 10:46:23;;;;;;;;;;;;;;;8.73;100.00;97811.12;113292;1246;23160;-57
2023/03/28 10:49:29;;;;;;;;;;;;;;;8.79;100.00;97808.65;113205;1246;22395;-57
2023/03/28 10:52:08;;;;;;;;;;;;;;;8.85;100.00;97805.87;113148;1245;22393;-57
2023/03/28 10:54:45;;;;;;;;;;;;;;;8.88;100.00;97807.69;111042;1246;22485;-47
2023/03/28 10:57:25;;;;;;;;;;;;;;;8.91;100.00;97803.59;110204;1246;23982;-46
2023/03/28 10:59:58;;;;;;;;;;;;;;;8.92;100.00;97799.36;112204;1246;22471;-45
2023/03/28 11:02:27;;;;;;;;;;;;;;;8.93;100.00;97799.69;113115;1246;22339;-45
2023/03/28 11:04:57;;;;;;;;;;;;;;;8.93;100.00;97797.95;113034;1246;22386;-45
2023/03/28 11:07:24;;;;;;;;;;;;;;;8.94;100.00;97797.23;113196;1246;22378;-46
2023/03/28 11:10:00;;;;;;;;;;;;;;;8.94;100.00;97790.62;113180;1246;23061;-56
2023/03/28 11:13:05;;;;;;;;;;;;;;;8.98;100.00;97785.59;113215;1246;22968;-45
2023/03/28 11:15:36;;;;;;;;;;;;;;;9.06;100.00;97786.20;113121;1246;22351;-45
2023/03/28 11:18:13;;;;;;;;;;;;;;;9.13;100.00;97785.11;113217;1246;22398;-56
2023/03/28 11:20:46;;;;;;;;;;;;;;;9.17;100.00;97781.85;113196;1246;22429;-45
2023/03/28 11:23:15;;;;;;;;;;;;;;;9.20;100.00;97781.72;113110;1246;23321;-56
2023/03/28 11:26:07;;;;;;;;;;;;;;;9.22;100.00;97787.75;113245;1246;22333;-46
2023/03/28 11:28:52;;;;;;;;;;;;;;;9.23;100.00;97785.11;112756;1246;22458;-56
2023/03/28 11:31:21;;;;;;;;;;;;;;;9.25;100.00;97786.25;112632;1246;22583;-45
2023/03/28 11:33:55;;;;;;;;;;;;;;;9.28;100.00;97786.48;111350;1246;22489;-45
2023/03/28 11:36:35;;;;;;;;;;;;;;;9.33;100.00;97779.55;110580;1246;22678;-57
2023/03/28 11:39:05;;;;;;;;;;;;;;;9.38;100.00;97775.55;110432;1246;24196;-48
2023/03/28 11:41:33;;;;;;;;;;;;;;;9.39;100.00;97777.42;110068;1246;22482;-59
2023/03/28 11:44:15;;;;;;;;;;;;;;;9.40;100.00;97781.58;110492;1246;22552;-47
2023/03/28 11:46:43;;;;;;;;;;;;;;;9.43;100.00;97779.39;110227;1246;25203;-57
2023/03/28 11:49:24;;;;;;;;;;;;;;;9.46;100.00;97782.23;110332;1246;22561;-46
2023/03/28 11:52:01;;;;;;;;;;;;;;;9.49;100.00;97777.78;110049;1246;24121;-47
2023/03/28 11:54:29;;;;;;;;;;;;;;;9.48;100.00;97779.37;113121;1246;22376;-45
2023/03/28 11:57:28;;;;;;;;;;;;;;;9.48;100.00;97778.84;112785;1246;22594;-58
2023/03/28 12:00:15;;;;;;;;;;;;;;;9.50;100.00;97775.98;112433;1254;22472;-45
2023/03/28 12:03:03;;;;;;;;;;;;;;;9.54;100.00;97774.98;112368;1255;23007;-45
2023/03/28 12:05:34;;;;;;;;;;;;;;;9.57;100.00;97774.88;112419;1254;22547;-55
